Time,TemperatureF,DewpointF,PressureIn,WindDirection,WindDirectionDegrees,WindSpeedMPH,WindSpeedGustMPH,Humidity,HourlyPrecipIn,Conditions,Clouds,dailyrainin,SolarRadiationWatts/m^2,SoftwareType,DateUTC
2013-05-01 00:02:00,34.8,18.6,30.42,NE,39,0.0,0.0,51,0.00,,,0.00,0,WeatherHawk,2013-05-01 07:02:00,
2013-05-01 00:07:00,34.7,17.9,30.42,NE,39,0.0,0.0,50,0.00,,,0.00,0,WeatherHawk,2013-05-01 07:07:00,
2013-05-01 00:12:00,34.7,16.1,30.43,East,98,3.0,0.0,46,0.00,,,0.00,0,WeatherHawk,2013-05-01 07:12:00,
2013-05-01 00:18:00,36.0,15.7,30.43,SE,138,6.0,0.0,43,0.00,,,0.00,0,WeatherHawk,2013-05-01 07:18:00,
2013-05-01 00:23:00,34.0,13.9,30.43,SE,139,0.0,0.0,43,0.00,,,0.00,0,WeatherHawk,2013-05-01 07:23:00,
2013-05-01 00:29:00,35.0,18.7,30.43,North,351,0.0,0.0,51,0.00,,,0.00,0,WeatherHawk,2013-05-01 07:29:00,
2013-05-01 00:34:00,33.7,15.6,30.43,East,97,0.0,0.0,47,0.00,,,0.00,0,WeatherHawk,2013-05-01 07:34:00,
2013-05-01 00:39:00,34.7,18.9,30.43,North,350,1.0,0.0,52,0.00,,,0.00,1,WeatherHawk,2013-05-01 07:39:00,
2013-05-01 00:44:00,32.6,17.0,30.43,NNW,346,0.0,0.0,52,0.00,,,0.00,1,WeatherHawk,2013-05-01 07:44:00,
2013-05-01 00:49:00,32.8,18.4,30.44,SW,224,0.0,0.0,55,0.00,,,0.00,1,WeatherHawk,2013-05-01 07:49:00,
2013-05-01 00:54:00,34.3,20.6,30.44,SW,224,0.0,0.0,57,0.00,,,0.00,0,WeatherHawk,2013-05-01 07:54:00,
2013-05-01 00:59:00,34.2,20.2,30.44,SW,224,0.0,0.0,56,0.00,,,0.00,0,WeatherHawk,2013-05-01 07:59:00,
2013-05-01 01:04:00,34.4,21.5,30.44,ENE,57,0.0,-999.0,59,0.00,,,0.00,0,WeatherHawk,2013-05-01 08:04:00,
2013-05-01 01:09:00,33.7,20.5,30.45,NNE,15,0.0,0.0,58,0.00,,,0.00,0,WeatherHawk,2013-05-01 08:09:00,
2013-05-01 01:14:00,34.0,21.2,30.45,NNE,15,0.0,0.0,59,0.00,,,0.00,0,WeatherHawk,2013-05-01 08:14:00,
2013-05-01 01:19:00,33.1,19.5,30.45,NNW,348,2.0,0.0,57,0.00,,,0.00,0,WeatherHawk,2013-05-01 08:19:00,
2013-05-01 01:24:00,33.0,18.2,30.45,NNW,334,0.0,-999.0,54,0.00,,,0.00,0,WeatherHawk,2013-05-01 08:24:00,
2013-05-01 01:29:00,32.7,18.7,30.45,NNE,32,0.0,0.0,56,0.00,,,0.00,0,WeatherHawk,2013-05-01 08:29:00,
2013-05-01 01:34:00,33.0,19.9,30.45,NE,34,0.0,0.0,58,0.00,,,0.00,0,WeatherHawk,2013-05-01 08:34:00,
2013-05-01 01:39:00,32.0,18.9,30.45,NNE,29,0.0,0.0,58,0.00,,,0.00,0,WeatherHawk,2013-05-01 08:39:00,
2013-05-01 01:44:00,32.6,19.5,30.45,NW,321,0.0,-999.0,58,0.00,,,0.00,0,WeatherHawk,2013-05-01 08:44:00,
2013-05-01 01:49:00,32.8,20.0,30.45,WSW,251,0.0,0.0,59,0.00,,,0.00,0,WeatherHawk,2013-05-01 08:49:00,
2013-05-01 01:54:00,32.6,18.2,30.45,WSW,256,0.0,-999.0,55,0.00,,,0.00,0,WeatherHawk,2013-05-01 08:54:00,
2013-05-01 01:59:00,32.3,18.4,30.46,WSW,244,0.0,0.0,56,0.00,,,0.00,0,WeatherHawk,2013-05-01 08:59:00,
2013-05-01 02:04:00,31.6,18.6,30.46,WNW,292,0.0,0.0,58,0.00,,,0.00,0,WeatherHawk,2013-05-01 09:04:00,
2013-05-01 02:09:00,32.2,19.5,30.45,NNE,29,0.0,0.0,59,0.00,,,0.00,0,WeatherHawk,2013-05-01 09:09:00,
2013-05-01 02:14:00,30.8,18.2,30.46,SE,141,0.0,0.0,59,0.00,,,0.00,1,WeatherHawk,2013-05-01 09:14:00,
2013-05-01 02:19:00,31.7,19.8,30.46,SE,141,0.0,0.0,61,0.00,,,0.00,0,WeatherHawk,2013-05-01 09:19:00,
2013-05-01 02:24:00,31.9,21.2,30.46,SE,141,0.0,-999.0,64,0.00,,,0.00,0,WeatherHawk,2013-05-01 09:24:00,
2013-05-01 02:29:00,30.4,19.7,30.46,SE,141,0.0,0.0,64,0.00,,,0.00,0,WeatherHawk,2013-05-01 09:29:00,
2013-05-01 02:34:00,31.7,21.3,30.46,NW,314,0.0,0.0,65,0.00,,,0.00,0,WeatherHawk,2013-05-01 09:34:00,
2013-05-01 02:39:00,30.4,19.7,30.46,WSW,254,0.0,0.0,64,0.00,,,0.00,1,WeatherHawk,2013-05-01 09:39:00,
2013-05-01 02:44:00,30.9,20.9,30.46,WSW,254,0.0,0.0,66,0.00,,,0.00,0,WeatherHawk,2013-05-01 09:44:00,
2013-05-01 02:49:00,31.4,21.7,30.47,NW,314,0.0,0.0,67,0.00,,,0.00,0,WeatherHawk,2013-05-01 09:49:00,
2013-05-01 02:54:00,30.6,19.9,30.47,West,270,0.0,-999.0,64,0.00,,,0.00,0,WeatherHawk,2013-05-01 09:54:00,
2013-05-01 02:59:00,29.8,19.9,30.47,West,270,0.0,0.0,66,0.00,,,0.00,0,WeatherHawk,2013-05-01 09:59:00,
2013-05-01 03:04:00,31.2,21.1,30.47,West,270,0.0,0.0,66,0.00,,,0.00,0,WeatherHawk,2013-05-01 10:04:00,
2013-05-01 03:09:00,30.3,19.6,30.47,ESE,117,0.0,0.0,64,0.00,,,0.00,0,WeatherHawk,2013-05-01 10:09:00,
2013-05-01 03:14:00,31.3,19.5,30.47,West,270,0.0,0.0,61,0.00,,,0.00,0,WeatherHawk,2013-05-01 10:14:00,
2013-05-01 03:19:00,30.4,19.0,30.48,SW,227,0.0,0.0,62,0.00,,,0.00,0,WeatherHawk,2013-05-01 10:19:00,
2013-05-01 03:24:00,29.4,18.4,30.48,SW,216,0.0,0.0,63,0.00,,,0.00,0,WeatherHawk,2013-05-01 10:24:00,
2013-05-01 03:29:00,28.6,18.0,30.48,SW,216,0.0,0.0,64,0.00,,,0.00,1,WeatherHawk,2013-05-01 10:29:00,
2013-05-01 03:34:00,29.8,18.3,30.48,WSW,245,0.0,0.0,62,0.00,,,0.00,0,WeatherHawk,2013-05-01 10:34:00,
2013-05-01 03:39:00,28.8,17.5,30.48,South,179,0.0,0.0,62,0.00,,,0.00,0,WeatherHawk,2013-05-01 10:39:00,
2013-05-01 03:44:00,29.2,17.9,30.48,South,179,0.0,0.0,62,0.00,,,0.00,1,WeatherHawk,2013-05-01 10:44:00,
2013-05-01 03:49:00,30.2,19.2,30.48,South,173,0.0,0.0,63,0.00,,,0.00,0,WeatherHawk,2013-05-01 10:49:00,
2013-05-01 03:54:00,30.5,19.8,30.48,NNW,329,0.0,-999.0,64,0.00,,,0.00,0,WeatherHawk,2013-05-01 10:54:00,
2013-05-01 03:59:00,28.8,18.5,30.48,NNW,329,0.0,0.0,65,0.00,,,0.00,1,WeatherHawk,2013-05-01 10:59:00,
2013-05-01 04:04:00,29.4,19.1,30.49,WSW,252,0.0,-999.0,65,0.00,,,0.00,0,WeatherHawk,2013-05-01 11:04:00,
2013-05-01 04:09:00,28.7,18.5,30.49,SW,223,0.0,0.0,65,0.00,,,0.00,0,WeatherHawk,2013-05-01 11:09:00,
2013-05-01 04:14:00,28.2,18.0,30.49,South,188,0.0,0.0,65,0.00,,,0.00,0,WeatherHawk,2013-05-01 11:14:00,
2013-05-01 04:19:00,28.8,19.2,30.49,SSW,213,0.0,0.0,67,0.00,,,0.00,0,WeatherHawk,2013-05-01 11:19:00,
2013-05-01 04:24:00,28.3,18.8,30.49,South,188,0.0,-999.0,67,0.00,,,0.00,0,WeatherHawk,2013-05-01 11:24:00,
2013-05-01 04:29:00,28.8,19.2,30.49,South,179,0.0,0.0,67,0.00,,,0.00,0,WeatherHawk,2013-05-01 11:29:00,
2013-05-01 04:34:00,28.8,20.0,30.49,South,179,0.0,0.0,69,0.00,,,0.00,1,WeatherHawk,2013-05-01 11:34:00,
2013-05-01 04:40:00,29.2,20.0,30.49,South,179,0.0,0.0,68,0.00,,,0.00,0,WeatherHawk,2013-05-01 11:40:00,
2013-05-01 04:45:00,29.6,22.0,30.49,South,179,0.0,0.0,73,0.00,,,0.00,0,WeatherHawk,2013-05-01 11:45:00,
2013-05-01 04:50:00,29.6,21.4,30.50,South,179,0.0,0.0,71,0.00,,,0.00,0,WeatherHawk,2013-05-01 11:50:00,
2013-05-01 04:55:00,29.5,19.9,30.50,East,100,0.0,0.0,67,0.00,,,0.00,1,WeatherHawk,2013-05-01 11:55:00,
2013-05-01 05:00:00,28.5,19.0,30.50,WSW,249,0.0,0.0,67,0.00,,,0.00,0,WeatherHawk,2013-05-01 12:00:00,
2013-05-01 05:05:00,28.8,19.9,30.50,SSE,160,0.0,0.0,69,0.00,,,0.00,0,WeatherHawk,2013-05-01 12:05:00,
2013-05-01 05:10:00,28.9,19.0,30.50,SSW,199,0.0,0.0,66,0.00,,,0.00,0,WeatherHawk,2013-05-01 12:10:00,
2013-05-01 05:15:00,29.2,19.7,30.51,SSW,199,0.0,0.0,67,0.00,,,0.00,0,WeatherHawk,2013-05-01 12:15:00,
2013-05-01 05:20:00,29.0,20.2,30.50,SSW,199,0.0,0.0,69,0.00,,,0.00,0,WeatherHawk,2013-05-01 12:20:00,
2013-05-01 05:25:00,28.9,19.4,30.50,SSE,152,0.0,0.0,67,0.00,,,0.00,0,WeatherHawk,2013-05-01 12:25:00,
2013-05-01 05:31:00,28.2,18.7,30.51,SSE,152,0.0,0.0,67,0.00,,,0.00,0,WeatherHawk,2013-05-01 12:31:00,
2013-05-01 05:36:00,28.8,20.3,30.51,SSE,152,0.0,0.0,70,0.00,,,0.00,0,WeatherHawk,2013-05-01 12:36:00,
2013-05-01 05:41:00,28.1,19.9,30.51,SSE,152,0.0,0.0,71,0.00,,,0.00,0,WeatherHawk,2013-05-01 12:41:00,
2013-05-01 05:46:00,29.0,21.2,30.52,SSE,152,0.0,0.0,72,0.00,,,0.00,1,WeatherHawk,2013-05-01 12:46:00,
2013-05-01 05:52:00,29.3,20.4,30.52,SSE,152,0.0,0.0,69,0.00,,,0.00,2,WeatherHawk,2013-05-01 12:52:00,
2013-05-01 05:57:00,27.8,19.0,30.52,SSE,152,0.0,0.0,69,0.00,,,0.00,5,WeatherHawk,2013-05-01 12:57:00,
2013-05-01 06:02:00,28.4,18.5,30.52,SSE,152,0.0,0.0,66,0.00,,,0.00,5,WeatherHawk,2013-05-01 13:02:00,
2013-05-01 06:07:00,29.3,17.9,30.52,SSE,168,1.0,0.0,62,0.00,,,0.00,8,WeatherHawk,2013-05-01 13:07:00,
2013-05-01 06:12:00,28.4,16.7,30.52,ENE,64,0.0,0.0,61,0.00,,,0.00,11,WeatherHawk,2013-05-01 13:12:00,
2013-05-01 06:17:00,27.9,18.1,30.52,NE,46,0.0,0.0,66,0.00,,,0.00,14,WeatherHawk,2013-05-01 13:17:00,
2013-05-01 06:22:00,29.1,19.8,30.52,NE,46,0.0,0.0,68,0.00,,,0.00,14,WeatherHawk,2013-05-01 13:22:00,
2013-05-01 06:27:00,28.3,20.8,30.53,NE,46,0.0,0.0,73,0.00,,,0.00,18,WeatherHawk,2013-05-01 13:27:00,
2013-05-01 06:32:00,28.2,21.9,30.53,NE,46,0.0,0.0,77,0.00,,,0.00,21,WeatherHawk,2013-05-01 13:32:00,
2013-05-01 06:37:00,28.3,22.4,30.53,NE,46,0.0,0.0,78,0.00,,,0.00,22,WeatherHawk,2013-05-01 13:37:00,
2013-05-01 06:42:00,28.7,22.2,30.53,NE,46,0.0,0.0,76,0.00,,,0.00,25,WeatherHawk,2013-05-01 13:42:00,
2013-05-01 06:47:00,28.5,22.2,30.54,NE,46,0.0,0.0,77,0.00,,,0.00,26,WeatherHawk,2013-05-01 13:47:00,
2013-05-01 06:52:00,28.2,21.6,30.54,NE,46,0.0,0.0,76,0.00,,,0.00,28,WeatherHawk,2013-05-01 13:52:00,
2013-05-01 06:57:00,28.7,22.4,30.54,NE,46,0.0,0.0,77,0.00,,,0.00,28,WeatherHawk,2013-05-01 13:57:00,
2013-05-01 07:02:00,29.1,23.2,30.54,NE,46,0.0,0.0,78,0.00,,,0.00,31,WeatherHawk,2013-05-01 14:02:00,
2013-05-01 07:07:00,29.2,22.6,30.55,NE,46,0.0,0.0,76,0.00,,,0.00,31,WeatherHawk,2013-05-01 14:07:00,
2013-05-01 07:12:00,29.5,22.2,30.55,NE,46,0.0,0.0,74,0.00,,,0.00,32,WeatherHawk,2013-05-01 14:12:00,
2013-05-01 07:17:00,31.6,22.9,30.54,North,0,0.0,0.0,70,0.00,,,0.00,157,WeatherHawk,2013-05-01 14:17:00,
2013-05-01 07:22:00,31.8,19.5,30.54,North,0,0.0,0.0,60,0.00,,,0.00,169,WeatherHawk,2013-05-01 14:22:00,
2013-05-01 07:27:00,32.8,18.0,30.55,North,0,0.0,0.0,54,0.00,,,0.00,182,WeatherHawk,2013-05-01 14:27:00,
2013-05-01 07:32:00,32.6,18.2,30.54,ESE,115,0.0,0.0,55,0.00,,,0.00,196,WeatherHawk,2013-05-01 14:32:00,
2013-05-01 07:38:00,33.2,16.1,30.55,ESE,115,0.0,0.0,49,0.00,,,0.00,210,WeatherHawk,2013-05-01 14:38:00,
2013-05-01 07:43:00,36.5,18.2,30.54,ESE,115,0.0,0.0,47,0.00,,,0.00,225,WeatherHawk,2013-05-01 14:43:00,
2013-05-01 07:48:00,39.1,20.6,30.54,ENE,63,0.0,0.0,47,0.00,,,0.00,237,WeatherHawk,2013-05-01 14:48:00,
2013-05-01 07:53:00,36.4,15.5,30.54,ENE,63,0.0,0.0,42,0.00,,,0.00,251,WeatherHawk,2013-05-01 14:53:00,
2013-05-01 07:58:00,35.6,14.3,30.54,NE,43,0.0,0.0,41,0.00,,,0.00,265,WeatherHawk,2013-05-01 14:58:00,
2013-05-01 08:04:00,39.7,20.1,30.54,North,5,0.0,0.0,45,0.00,,,0.00,281,WeatherHawk,2013-05-01 15:04:00,
2013-05-01 08:09:00,39.4,15.3,30.53,SE,132,2.0,0.0,37,0.00,,,0.00,294,WeatherHawk,2013-05-01 15:09:00,
2013-05-01 08:14:00,39.8,12.4,30.53,SSE,147,4.0,0.0,32,0.00,,,0.00,307,WeatherHawk,2013-05-01 15:14:00,
2013-05-01 08:19:00,36.6,9.6,30.53,WSW,245,0.0,0.0,32,0.00,,,0.00,322,WeatherHawk,2013-05-01 15:19:00,
2013-05-01 08:24:00,38.3,11.0,30.53,SW,236,3.0,0.0,32,0.00,,,0.00,334,WeatherHawk,2013-05-01 15:24:00,
2013-05-01 08:29:00,39.4,9.8,30.52,West,259,3.0,0.0,29,0.00,,,0.00,347,WeatherHawk,2013-05-01 15:29:00,
2013-05-01 08:34:00,39.4,12.8,30.53,NE,42,0.0,0.0,33,0.00,,,0.00,361,WeatherHawk,2013-05-01 15:34:00,
2013-05-01 08:39:00,42.1,8.8,30.53,SSW,204,3.0,0.0,25,0.00,,,0.00,374,WeatherHawk,2013-05-01 15:39:00,
2013-05-01 08:44:00,42.1,7.9,30.53,SSE,163,5.0,0.0,24,0.00,,,0.00,388,WeatherHawk,2013-05-01 15:44:00,
2013-05-01 08:50:00,43.9,6.5,30.53,SW,228,2.0,0.0,21,0.00,,,0.00,401,WeatherHawk,2013-05-01 15:50:00,
2013-05-01 08:55:00,42.5,6.3,30.52,South,182,4.0,0.0,22,0.00,,,0.00,413,WeatherHawk,2013-05-01 15:55:00,
2013-05-01 09:00:00,42.8,2.2,30.52,ENE,73,5.0,0.0,18,0.00,,,0.00,425,WeatherHawk,2013-05-01 16:00:00,
2013-05-01 09:05:00,43.8,6.5,30.52,SW,214,4.0,-999.0,21,0.00,,,0.00,437,WeatherHawk,2013-05-01 16:05:00,
2013-05-01 09:10:00,41.9,2.7,30.52,SE,146,6.0,0.0,19,0.00,,,0.00,452,WeatherHawk,2013-05-01 16:10:00,
2013-05-01 09:15:00,42.1,1.7,30.51,ESE,115,3.0,-999.0,18,0.00,,,0.00,463,WeatherHawk,2013-05-01 16:15:00,
2013-05-01 09:20:00,43.7,1.8,30.51,SSE,165,7.0,0.0,17,0.00,,,0.00,478,WeatherHawk,2013-05-01 16:20:00,
2013-05-01 09:25:00,43.7,1.8,30.51,ESE,120,3.0,-999.0,17,0.00,,,0.00,488,WeatherHawk,2013-05-01 16:25:00,
2013-05-01 09:30:00,46.5,4.1,30.51,South,171,4.0,0.0,17,0.00,,,0.00,501,WeatherHawk,2013-05-01 16:30:00,
2013-05-01 09:35:00,44.4,-0.3,30.51,SE,137,3.0,-999.0,15,0.00,,,0.00,514,WeatherHawk,2013-05-01 16:35:00,
2013-05-01 09:40:00,43.1,-2.8,30.51,South,182,7.0,0.0,14,0.00,,,0.00,523,WeatherHawk,2013-05-01 16:40:00,
2013-05-01 09:45:00,43.8,-2.3,30.51,SSE,159,4.0,-999.0,14,0.00,,,0.00,534,WeatherHawk,2013-05-01 16:45:00,
2013-05-01 09:50:00,48.7,5.8,30.51,East,89,0.0,0.0,17,0.00,,,0.00,545,WeatherHawk,2013-05-01 16:50:00,
2013-05-01 09:55:00,48.4,-0.1,30.51,NE,34,0.0,-999.0,13,0.00,,,0.00,555,WeatherHawk,2013-05-01 16:55:00,
2013-05-01 10:00:00,52.3,1.2,30.51,SE,141,0.0,0.0,12,0.00,,,0.00,567,WeatherHawk,2013-05-01 17:00:00,
2013-05-01 10:05:00,44.8,-8.4,30.51,SSW,196,9.0,0.0,10,0.00,,,0.00,576,WeatherHawk,2013-05-01 17:05:00,
2013-05-01 10:10:00,52.0,-2.8,30.51,SE,139,0.0,0.0,10,0.00,,,0.00,585,WeatherHawk,2013-05-01 17:10:00,
2013-05-01 10:15:00,49.0,-1.4,30.51,ESE,106,0.0,0.0,12,0.00,,,0.00,596,WeatherHawk,2013-05-01 17:15:00,
2013-05-01 10:20:00,49.6,-2.7,30.51,SE,130,4.0,0.0,11,0.00,,,0.00,606,WeatherHawk,2013-05-01 17:20:00,
2013-05-01 10:25:00,46.8,-4.9,30.51,ESE,114,0.0,-999.0,11,0.00,,,0.00,614,WeatherHawk,2013-05-01 17:25:00,
2013-05-01 10:30:00,48.3,-7.8,30.50,SSE,150,4.0,0.0,9,0.00,,,0.00,626,WeatherHawk,2013-05-01 17:30:00,
2013-05-01 10:35:00,48.7,-5.4,30.51,WSW,247,2.0,0.0,10,0.00,,,0.00,633,WeatherHawk,2013-05-01 17:35:00,
2013-05-01 10:40:00,48.7,-12.6,30.50,SSW,213,6.0,0.0,7,0.00,,,0.00,639,WeatherHawk,2013-05-01 17:40:00,
2013-05-01 10:45:00,48.6,-15.7,30.50,South,186,4.0,-999.0,6,0.00,,,0.00,650,WeatherHawk,2013-05-01 17:45:00,
2013-05-01 10:50:00,48.9,-12.5,30.50,South,183,5.0,0.0,7,0.00,,,0.00,657,WeatherHawk,2013-05-01 17:50:00,
2013-05-01 10:55:00,51.3,-10.7,30.50,SSW,199,4.0,0.0,7,0.00,,,0.00,664,WeatherHawk,2013-05-01 17:55:00,
2013-05-01 11:00:00,49.0,-9.7,30.50,South,178,9.0,0.0,8,0.00,,,0.00,672,WeatherHawk,2013-05-01 18:00:00,
2013-05-01 11:05:00,51.6,-7.8,30.50,SE,124,0.0,0.0,8,0.00,,,0.00,680,WeatherHawk,2013-05-01 18:05:00,
2013-05-01 11:10:00,52.8,-6.9,30.50,SSE,166,1.0,0.0,8,0.00,,,0.00,687,WeatherHawk,2013-05-01 18:10:00,
2013-05-01 11:15:00,50.9,-8.3,30.50,ESE,122,5.0,-999.0,8,0.00,,,0.00,692,WeatherHawk,2013-05-01 18:15:00,
2013-05-01 11:20:00,50.7,-8.4,30.50,NE,49,1.0,0.0,8,0.00,,,0.00,698,WeatherHawk,2013-05-01 18:20:00,
2013-05-01 11:25:00,54.7,-5.4,30.50,South,191,0.0,-999.0,8,0.00,,,0.00,710,WeatherHawk,2013-05-01 18:25:00,
2013-05-01 11:30:00,49.0,-7.4,30.49,ESE,111,6.0,0.0,9,0.00,,,0.00,711,WeatherHawk,2013-05-01 18:30:00,
2013-05-01 11:35:00,52.1,-7.4,30.49,North,3,6.0,-999.0,8,0.00,,,0.00,718,WeatherHawk,2013-05-01 18:35:00,
2013-05-01 11:40:00,48.5,-7.7,30.49,NW,317,8.0,0.0,9,0.00,,,0.00,724,WeatherHawk,2013-05-01 18:40:00,
2013-05-01 11:45:00,48.7,-10.0,30.49,WNW,287,7.0,-999.0,8,0.00,,,0.00,729,WeatherHawk,2013-05-01 18:45:00,
2013-05-01 11:50:00,49.1,-9.6,30.48,NNW,340,10.0,0.0,8,0.00,,,0.00,731,WeatherHawk,2013-05-01 18:50:00,
2013-05-01 11:55:00,50.5,-11.3,30.49,NNW,332,7.0,0.0,7,0.00,,,0.00,736,WeatherHawk,2013-05-01 18:55:00,
2013-05-01 12:00:00,51.8,-7.6,30.50,NNW,332,7.0,0.0,8,0.00,,,0.00,740,WeatherHawk,2013-05-01 19:00:00,
2013-05-01 12:05:00,51.4,-7.9,30.49,North,3,8.0,0.0,8,0.00,,,0.00,746,WeatherHawk,2013-05-01 19:05:00,
2013-05-01 12:10:00,50.2,-8.8,30.49,North,10,8.0,0.0,8,0.00,,,0.00,747,WeatherHawk,2013-05-01 19:10:00,
2013-05-01 12:15:00,50.6,-8.5,30.48,North,0,8.0,0.0,8,0.00,,,0.00,750,WeatherHawk,2013-05-01 19:15:00,
2013-05-01 12:20:00,50.5,-6.2,30.49,NW,324,8.0,-999.0,9,0.00,,,0.00,751,WeatherHawk,2013-05-01 19:20:00,
2013-05-01 12:25:00,51.1,-5.7,30.48,NW,323,7.0,0.0,9,0.00,,,0.00,754,WeatherHawk,2013-05-01 19:25:00,
2013-05-01 12:30:00,50.6,-6.1,30.49,NW,306,6.0,0.0,9,0.00,,,0.00,757,WeatherHawk,2013-05-01 19:30:00,
2013-05-01 12:35:00,51.9,-5.1,30.48,NNE,18,3.0,0.0,9,0.00,,,0.00,760,WeatherHawk,2013-05-01 19:35:00,
2013-05-01 12:40:00,51.1,-5.7,30.48,NNW,343,9.0,-999.0,9,0.00,,,0.00,760,WeatherHawk,2013-05-01 19:40:00,
2013-05-01 12:45:00,55.1,-2.7,30.48,NW,324,7.0,0.0,9,0.00,,,0.00,760,WeatherHawk,2013-05-01 19:45:00,
2013-05-01 12:50:00,53.6,-3.8,30.47,North,351,6.0,-999.0,9,0.00,,,0.00,757,WeatherHawk,2013-05-01 19:50:00,
2013-05-01 12:55:00,51.5,-5.4,30.48,NW,311,9.0,0.0,9,0.00,,,0.00,761,WeatherHawk,2013-05-01 19:55:00,
2013-05-01 13:00:00,52.5,-4.6,30.48,NW,313,8.0,0.0,9,0.00,,,0.00,764,WeatherHawk,2013-05-01 20:00:00,
2013-05-01 13:05:00,55.3,-2.5,30.48,NW,310,7.0,0.0,9,0.00,,,0.00,762,WeatherHawk,2013-05-01 20:05:00,
2013-05-01 13:10:00,56.4,-1.7,30.48,NE,38,6.0,0.0,9,0.00,,,0.00,766,WeatherHawk,2013-05-01 20:10:00,
2013-05-01 13:15:00,56.2,-1.8,30.47,NNW,343,6.0,0.0,9,0.00,,,0.00,762,WeatherHawk,2013-05-01 20:15:00,
2013-05-01 13:20:00,53.4,-4.0,30.47,NE,38,4.0,-999.0,9,0.00,,,0.00,763,WeatherHawk,2013-05-01 20:20:00,
2013-05-01 13:25:00,53.4,-3.9,30.47,North,351,5.0,0.0,9,0.00,,,0.00,762,WeatherHawk,2013-05-01 20:25:00,
2013-05-01 13:30:00,56.8,-1.4,30.47,NNW,340,6.0,0.0,9,0.00,,,0.00,757,WeatherHawk,2013-05-01 20:30:00,
2013-05-01 13:35:00,54.8,-2.9,30.47,NE,34,4.0,0.0,9,0.00,,,0.00,755,WeatherHawk,2013-05-01 20:35:00,
2013-05-01 13:40:00,57.7,-0.7,30.48,NNE,14,7.0,0.0,9,0.00,,,0.00,754,WeatherHawk,2013-05-01 20:40:00,
2013-05-01 13:45:00,54.9,-2.8,30.47,NE,56,3.0,0.0,9,0.00,,,0.00,747,WeatherHawk,2013-05-01 20:45:00,
2013-05-01 13:50:00,55.4,-2.4,30.47,NE,43,2.0,0.0,9,0.00,,,0.00,747,WeatherHawk,2013-05-01 20:50:00,
2013-05-01 13:55:00,54.4,-3.2,30.48,NW,308,5.0,0.0,9,0.00,,,0.00,744,WeatherHawk,2013-05-01 20:55:00,
2013-05-01 14:00:00,57.7,-0.7,30.47,NNE,15,5.0,0.0,9,0.00,,,0.00,740,WeatherHawk,2013-05-01 21:00:00,
2013-05-01 14:05:00,55.4,-2.4,30.48,NE,45,2.0,0.0,9,0.00,,,0.00,735,WeatherHawk,2013-05-01 21:05:00,
2013-05-01 14:10:00,56.0,-7.2,30.47,NE,38,4.0,-999.0,7,0.00,,,0.00,730,WeatherHawk,2013-05-01 21:10:00,
2013-05-01 14:15:00,57.0,-1.3,30.48,NNW,342,9.0,0.0,9,0.00,,,0.00,725,WeatherHawk,2013-05-01 21:15:00,
2013-05-01 14:20:00,59.0,0.3,30.47,North,0,9.0,0.0,9,0.00,,,0.00,721,WeatherHawk,2013-05-01 21:20:00,
2013-05-01 14:25:00,56.9,-1.3,30.47,NW,324,1.0,0.0,9,0.00,,,0.00,716,WeatherHawk,2013-05-01 21:25:00,
2013-05-01 14:30:00,57.2,-1.1,30.48,East,94,5.0,0.0,9,0.00,,,0.00,709,WeatherHawk,2013-05-01 21:30:00,
2013-05-01 14:35:00,57.5,-0.8,30.48,NW,310,10.0,0.0,9,0.00,,,0.00,703,WeatherHawk,2013-05-01 21:35:00,
2013-05-01 14:40:00,57.3,-1.0,30.47,NNE,33,5.0,0.0,9,0.00,,,0.00,696,WeatherHawk,2013-05-01 21:40:00,
2013-05-01 14:45:00,59.1,0.3,30.48,NW,311,4.0,0.0,9,0.00,,,0.00,688,WeatherHawk,2013-05-01 21:45:00,
2013-05-01 14:50:00,56.5,-1.6,30.47,NNE,30,10.0,-999.0,9,0.00,,,0.00,684,WeatherHawk,2013-05-01 21:50:00,
2013-05-01 14:55:00,60.9,1.7,30.47,North,349,6.0,0.0,9,0.00,,,0.00,675,WeatherHawk,2013-05-01 21:55:00,
2013-05-01 15:00:00,59.6,0.7,30.48,NNW,342,9.0,-999.0,9,0.00,,,0.00,670,WeatherHawk,2013-05-01 22:00:00,
2013-05-01 15:05:00,59.3,0.5,30.47,NNW,340,7.0,0.0,9,0.00,,,0.00,665,WeatherHawk,2013-05-01 22:05:00,
2013-05-01 15:10:00,60.4,1.3,30.47,NNE,30,8.0,-999.0,9,0.00,,,0.00,655,WeatherHawk,2013-05-01 22:10:00,
2013-05-01 15:15:00,61.6,2.3,30.47,West,271,1.0,0.0,9,0.00,,,0.00,648,WeatherHawk,2013-05-01 22:15:00,
2013-05-01 15:20:00,59.1,0.3,30.47,NNE,15,10.0,0.0,9,0.00,,,0.00,637,WeatherHawk,2013-05-01 22:20:00,
2013-05-01 15:25:00,59.6,0.8,30.47,NNE,21,4.0,-999.0,9,0.00,,,0.00,627,WeatherHawk,2013-05-01 22:25:00,
2013-05-01 15:30:00,60.2,1.2,30.47,North,6,3.0,0.0,9,0.00,,,0.00,623,WeatherHawk,2013-05-01 22:30:00,
2013-05-01 15:35:00,57.8,-0.6,30.47,West,280,5.0,0.0,9,0.00,,,0.00,248,WeatherHawk,2013-05-01 22:35:00,
2013-05-01 15:40:00,59.2,-2.0,30.48,ESE,108,3.0,-999.0,8,0.00,,,0.00,606,WeatherHawk,2013-05-01 22:40:00,
2013-05-01 15:45:00,60.3,1.2,30.46,NNE,15,4.0,0.0,9,0.00,,,0.00,596,WeatherHawk,2013-05-01 22:45:00,
2013-05-01 15:50:00,59.3,0.5,30.47,SE,125,2.0,-999.0,9,0.00,,,0.00,587,WeatherHawk,2013-05-01 22:50:00,
2013-05-01 15:55:00,58.8,-12.0,30.46,ESE,106,6.0,0.0,5,0.00,,,0.00,577,WeatherHawk,2013-05-01 22:55:00,
2013-05-01 16:00:00,61.5,2.2,30.46,NNE,17,6.0,0.0,9,0.00,,,0.00,567,WeatherHawk,2013-05-01 23:00:00,
2013-05-01 16:05:00,60.7,1.6,30.46,ENE,69,5.0,0.0,9,0.00,,,0.00,558,WeatherHawk,2013-05-01 23:05:00,
2013-05-01 16:10:00,61.4,2.1,30.46,North,351,3.0,0.0,9,0.00,,,0.00,547,WeatherHawk,2013-05-01 23:10:00,
2013-05-01 16:15:00,58.0,-0.5,30.46,ESE,106,3.0,0.0,9,0.00,,,0.00,536,WeatherHawk,2013-05-01 23:15:00,
2013-05-01 16:20:00,59.8,-11.3,30.46,North,350,3.0,-999.0,5,0.00,,,0.00,525,WeatherHawk,2013-05-01 23:20:00,
2013-05-01 16:25:00,60.3,1.2,30.46,NE,54,6.0,0.0,9,0.00,,,0.00,515,WeatherHawk,2013-05-01 23:25:00,
2013-05-01 16:30:00,59.9,1.0,30.46,ENE,65,0.0,0.0,9,0.00,,,0.00,504,WeatherHawk,2013-05-01 23:30:00,
2013-05-01 16:35:00,59.6,0.7,30.46,NW,320,7.0,0.0,9,0.00,,,0.00,491,WeatherHawk,2013-05-01 23:35:00,
2013-05-01 16:40:00,62.2,2.7,30.46,NNE,28,7.0,-999.0,9,0.00,,,0.00,483,WeatherHawk,2013-05-01 23:40:00,
2013-05-01 16:45:00,60.0,1.0,30.46,North,3,9.0,0.0,9,0.00,,,0.00,469,WeatherHawk,2013-05-01 23:45:00,
2013-05-01 16:50:00,59.7,0.8,30.47,NW,321,10.0,-999.0,9,0.00,,,0.00,471,WeatherHawk,2013-05-01 23:50:00,
2013-05-01 16:55:00,59.7,0.8,30.46,ENE,67,4.0,0.0,9,0.00,,,0.00,457,WeatherHawk,2013-05-01 23:55:00,
2013-05-01 17:00:00,60.1,1.1,30.46,ENE,60,7.0,-999.0,9,0.00,,,0.00,447,WeatherHawk,2013-05-02 00:00:00,
2013-05-01 17:05:00,59.6,0.7,30.47,NW,320,12.0,0.0,9,0.00,,,0.00,428,WeatherHawk,2013-05-02 00:05:00,
2013-05-01 17:10:00,59.8,0.9,30.46,NW,304,5.0,0.0,9,0.00,,,0.00,410,WeatherHawk,2013-05-02 00:10:00,
2013-05-01 17:15:00,61.7,2.3,30.46,NW,304,8.0,0.0,9,0.00,,,0.00,398,WeatherHawk,2013-05-02 00:15:00,
2013-05-01 17:21:00,60.3,1.3,30.46,NNW,332,7.0,0.0,9,0.00,,,0.00,387,WeatherHawk,2013-05-02 00:21:00,
2013-05-01 17:27:00,60.6,-1.0,30.47,SE,133,3.0,0.0,8,0.00,,,0.00,377,WeatherHawk,2013-05-02 00:27:00,
2013-05-01 17:32:00,62.5,-9.3,30.46,North,0,3.0,0.0,5,0.00,,,0.00,363,WeatherHawk,2013-05-02 00:32:00,
2013-05-01 17:37:00,61.2,-0.6,30.46,ENE,75,4.0,0.0,8,0.00,,,0.00,335,WeatherHawk,2013-05-02 00:37:00,
2013-05-01 17:42:00,60.2,-11.0,30.46,NNE,24,6.0,0.0,5,0.00,,,0.00,328,WeatherHawk,2013-05-02 00:42:00,
2013-05-01 17:47:00,60.9,-10.4,30.46,NW,315,8.0,0.0,5,0.00,,,0.00,321,WeatherHawk,2013-05-02 00:47:00,
2013-05-01 17:52:00,62.3,-9.5,30.46,North,351,4.0,0.0,5,0.00,,,0.00,303,WeatherHawk,2013-05-02 00:52:00,
2013-05-01 17:57:00,60.3,-10.9,30.46,North,3,11.0,0.0,5,0.00,,,0.00,294,WeatherHawk,2013-05-02 00:57:00,
2013-05-01 18:02:00,61.0,-10.4,30.46,NE,38,1.0,0.0,5,0.00,,,0.00,263,WeatherHawk,2013-05-02 01:02:00,
2013-05-01 18:07:00,60.8,-10.5,30.46,NW,313,5.0,0.0,5,0.00,,,0.00,259,WeatherHawk,2013-05-02 01:07:00,
2013-05-01 18:12:00,62.1,-9.6,30.47,NW,317,5.0,0.0,5,0.00,,,0.00,268,WeatherHawk,2013-05-02 01:12:00,
2013-05-01 18:17:00,61.4,-10.1,30.46,NE,40,2.0,0.0,5,0.00,,,0.00,225,WeatherHawk,2013-05-02 01:17:00,
2013-05-01 18:22:00,60.8,-10.5,30.46,NNE,26,5.0,0.0,5,0.00,,,0.00,223,WeatherHawk,2013-05-02 01:22:00,
2013-05-01 18:27:00,60.5,-10.8,30.45,North,0,9.0,0.0,5,0.00,,,0.00,228,WeatherHawk,2013-05-02 01:27:00,
2013-05-01 18:32:00,60.4,-7.1,30.46,North,0,8.0,0.0,6,0.00,,,0.00,176,WeatherHawk,2013-05-02 01:32:00,
2013-05-01 18:37:00,62.1,-9.6,30.46,NNW,341,7.0,0.0,5,0.00,,,0.00,168,WeatherHawk,2013-05-02 01:37:00,
2013-05-01 18:42:00,62.3,-9.4,30.47,NNE,24,4.0,0.0,5,0.00,,,0.00,161,WeatherHawk,2013-05-02 01:42:00,
2013-05-01 18:47:00,60.7,-10.6,30.46,NNE,17,5.0,0.0,5,0.00,,,0.00,138,WeatherHawk,2013-05-02 01:47:00,
2013-05-01 18:52:00,60.8,-10.5,30.46,North,6,3.0,0.0,5,0.00,,,0.00,108,WeatherHawk,2013-05-02 01:52:00,
2013-05-01 18:58:00,60.4,-10.8,30.47,North,0,8.0,0.0,5,0.00,,,0.00,126,WeatherHawk,2013-05-02 01:58:00,
2013-05-01 19:03:00,61.1,-6.6,30.47,North,9,3.0,0.0,6,0.00,,,0.00,118,WeatherHawk,2013-05-02 02:03:00,
2013-05-01 19:08:00,60.8,-10.5,30.47,North,6,8.0,0.0,5,0.00,,,0.00,100,WeatherHawk,2013-05-02 02:08:00,
2013-05-01 19:13:00,60.5,-10.8,30.47,NNW,344,5.0,0.0,5,0.00,,,0.00,82,WeatherHawk,2013-05-02 02:13:00,
2013-05-01 19:18:00,60.0,-4.2,30.47,North,8,7.0,0.0,7,0.00,,,0.00,98,WeatherHawk,2013-05-02 02:18:00,
2013-05-01 19:23:00,60.5,-1.1,30.47,North,2,6.0,0.0,8,0.00,,,0.00,84,WeatherHawk,2013-05-02 02:23:00,
2013-05-01 19:28:00,60.1,-1.4,30.47,North,349,6.0,0.0,8,0.00,,,0.00,68,WeatherHawk,2013-05-02 02:28:00,
2013-05-01 19:33:00,60.3,1.3,30.47,NNE,33,0.0,0.0,9,0.00,,,0.00,53,WeatherHawk,2013-05-02 02:33:00,
2013-05-01 19:38:00,59.3,-2.0,30.47,NNE,33,7.0,0.0,8,0.00,,,0.00,39,WeatherHawk,2013-05-02 02:38:00,
2013-05-01 19:43:00,59.5,2.9,30.47,West,281,6.0,0.0,10,0.00,,,0.00,32,WeatherHawk,2013-05-02 02:43:00,
2013-05-01 19:48:00,58.2,1.9,30.47,NE,54,4.0,0.0,10,0.00,,,0.00,25,WeatherHawk,2013-05-02 02:48:00,
2013-05-01 19:53:00,59.1,2.6,30.47,North,3,7.0,0.0,10,0.00,,,0.00,18,WeatherHawk,2013-05-02 02:53:00,
2013-05-01 19:58:00,58.3,2.0,30.47,NNE,16,4.0,0.0,10,0.00,,,0.00,11,WeatherHawk,2013-05-02 02:58:00,
2013-05-01 20:03:00,58.2,1.9,30.48,North,0,1.0,0.0,10,0.00,,,0.00,8,WeatherHawk,2013-05-02 03:03:00,
2013-05-01 20:10:00,57.9,1.7,30.48,North,1,1.0,0.0,10,0.00,,,0.00,3,WeatherHawk,2013-05-02 03:10:00,
2013-05-01 20:15:00,56.6,0.7,30.49,NNE,18,4.0,0.0,10,0.00,,,0.00,1,WeatherHawk,2013-05-02 03:15:00,
2013-05-01 20:20:00,56.9,0.9,30.48,North,0,3.0,0.0,10,0.00,,,0.00,0,WeatherHawk,2013-05-02 03:20:00,
2013-05-01 20:25:00,56.6,0.7,30.48,NNE,18,2.0,0.0,10,0.00,,,0.00,0,WeatherHawk,2013-05-02 03:25:00,
2013-05-01 20:31:00,57.0,1.0,30.49,NNW,346,4.0,0.0,10,0.00,,,0.00,0,WeatherHawk,2013-05-02 03:31:00,
2013-05-01 20:36:00,56.0,0.2,30.49,NNE,15,4.0,0.0,10,0.00,,,0.00,0,WeatherHawk,2013-05-02 03:36:00,
2013-05-01 20:41:00,57.0,1.0,30.49,NE,38,9.0,0.0,10,0.00,,,0.00,0,WeatherHawk,2013-05-02 03:41:00,
2013-05-01 20:46:00,56.6,0.7,30.49,North,4,6.0,0.0,10,0.00,,,0.00,0,WeatherHawk,2013-05-02 03:46:00,
2013-05-01 20:51:00,56.3,0.5,30.49,North,9,6.0,0.0,10,0.00,,,0.00,0,WeatherHawk,2013-05-02 03:51:00,
2013-05-01 20:56:00,55.8,0.1,30.50,North,2,6.0,0.0,10,0.00,,,0.00,0,WeatherHawk,2013-05-02 03:56:00,
2013-05-01 21:01:00,56.0,-2.0,30.50,NE,56,10.0,0.0,9,0.00,,,0.00,0,WeatherHawk,2013-05-02 04:01:00,
2013-05-01 21:02:00,55.8,0.1,30.49,NNW,337,7.0,0.0,10,0.00,,,0.00,0,WeatherHawk,2013-05-02 04:02:00,
2013-05-01 21:03:00,55.8,0.1,30.49,NNW,337,7.0,0.0,10,0.00,,,0.00,0,WeatherHawk,2013-05-02 04:03:00,
2013-05-01 21:05:00,56.0,-2.0,30.50,NNW,344,3.0,-999.0,9,0.00,,,0.00,0,WeatherHawk,2013-05-02 04:05:00,
2013-05-01 21:08:00,55.8,0.0,30.50,North,9,7.0,0.0,10,0.00,,,0.00,0,WeatherHawk,2013-05-02 04:08:00,
2013-05-01 21:13:00,55.1,-2.7,30.50,NNE,19,5.0,0.0,9,0.00,,,0.00,0,WeatherHawk,2013-05-02 04:13:00,
2013-05-01 21:18:00,55.0,-2.8,30.50,NNE,28,2.0,0.0,9,0.00,,,0.00,0,WeatherHawk,2013-05-02 04:18:00,
2013-05-01 21:23:00,55.0,-2.8,30.51,NNE,14,7.0,0.0,9,0.00,,,0.00,0,WeatherHawk,2013-05-02 04:23:00,
2013-05-01 21:28:00,55.4,-2.5,30.51,North,351,6.0,0.0,9,0.00,,,0.00,0,WeatherHawk,2013-05-02 04:28:00,
2013-05-01 21:33:00,55.3,-2.5,30.51,North,1,8.0,0.0,9,0.00,,,0.00,0,WeatherHawk,2013-05-02 04:33:00,
2013-05-01 21:39:00,53.8,-3.7,30.51,NNW,343,5.0,0.0,9,0.00,,,0.00,0,WeatherHawk,2013-05-02 04:39:00,
2013-05-01 21:44:00,52.9,-9.5,30.52,West,271,0.0,0.0,7,0.00,,,0.00,0,WeatherHawk,2013-05-02 04:44:00,
2013-05-01 21:49:00,52.3,-2.6,30.51,SE,134,0.0,0.0,10,0.00,,,0.00,0,WeatherHawk,2013-05-02 04:49:00,
2013-05-01 21:55:00,53.3,-4.1,30.51,NNW,328,0.0,0.0,9,0.00,,,0.00,0,WeatherHawk,2013-05-02 04:55:00,
2013-05-01 22:00:00,52.7,-4.5,30.52,West,281,0.0,0.0,9,0.00,,,0.00,1,WeatherHawk,2013-05-02 05:00:00,
2013-05-01 22:05:00,52.3,-7.2,30.52,West,280,3.0,0.0,8,0.00,,,0.00,0,WeatherHawk,2013-05-02 05:05:00,
2013-05-01 22:10:00,51.0,-3.6,30.51,SSW,202,0.0,0.0,10,0.00,,,0.00,0,WeatherHawk,2013-05-02 05:10:00,
2013-05-01 22:15:00,52.2,-2.7,30.52,West,280,0.0,0.0,10,0.00,,,0.00,0,WeatherHawk,2013-05-02 05:15:00,
2013-05-01 22:20:00,50.0,-6.6,30.52,WSW,249,0.0,0.0,9,0.00,,,0.00,0,WeatherHawk,2013-05-02 05:20:00,
2013-05-01 22:25:00,50.7,0.0,30.52,East,80,0.0,0.0,12,0.00,,,0.00,0,WeatherHawk,2013-05-02 05:25:00,
2013-05-01 22:31:00,51.1,-5.8,30.52,West,267,0.0,0.0,9,0.00,,,0.00,0,WeatherHawk,2013-05-02 05:31:00,
2013-05-01 22:36:00,50.2,-2.3,30.52,North,1,0.0,0.0,11,0.00,,,0.00,0,WeatherHawk,2013-05-02 05:36:00,
2013-05-01 22:41:00,50.3,-0.3,30.53,West,267,0.0,0.0,12,0.00,,,0.00,0,WeatherHawk,2013-05-02 05:41:00,
2013-05-01 22:46:00,50.7,-3.8,30.53,NW,323,0.0,0.0,10,0.00,,,0.00,0,WeatherHawk,2013-05-02 05:46:00,
2013-05-01 22:51:00,50.4,-4.1,30.53,NW,314,0.0,0.0,10,0.00,,,0.00,0,WeatherHawk,2013-05-02 05:51:00,
2013-05-01 22:56:00,50.6,-1.9,30.53,NW,318,2.0,0.0,11,0.00,,,0.00,0,WeatherHawk,2013-05-02 05:56:00,
2013-05-01 23:01:00,50.2,1.3,30.53,NNW,337,3.0,0.0,13,0.00,,,0.00,1,WeatherHawk,2013-05-02 06:01:00,
2013-05-01 23:07:00,50.1,1.2,30.52,West,269,0.0,0.0,13,0.00,,,0.00,0,WeatherHawk,2013-05-02 06:07:00,
2013-05-01 23:12:00,48.7,5.9,30.53,NNW,335,0.0,0.0,17,0.00,,,0.00,0,WeatherHawk,2013-05-02 06:12:00,
2013-05-01 23:17:00,48.8,1.8,30.53,NNW,335,0.0,0.0,14,0.00,,,0.00,0,WeatherHawk,2013-05-02 06:17:00,
2013-05-01 23:22:00,47.5,4.9,30.53,NW,323,0.0,0.0,17,0.00,,,0.00,0,WeatherHawk,2013-05-02 06:22:00,
2013-05-01 23:27:00,48.1,10.0,30.53,NW,323,0.0,0.0,21,0.00,,,0.00,0,WeatherHawk,2013-05-02 06:27:00,
2013-05-01 23:32:00,48.6,7.0,30.52,NW,323,0.0,0.0,18,0.00,,,0.00,0,WeatherHawk,2013-05-02 06:32:00,
2013-05-01 23:37:00,47.6,2.3,30.53,West,275,0.0,0.0,15,0.00,,,0.00,0,WeatherHawk,2013-05-02 06:37:00,
2013-05-01 23:42:00,49.2,4.9,30.53,West,275,0.0,0.0,16,0.00,,,0.00,0,WeatherHawk,2013-05-02 06:42:00,
2013-05-01 23:47:00,49.0,1.9,30.53,NNW,330,0.0,0.0,14,0.00,,,0.00,0,WeatherHawk,2013-05-02 06:47:00,
2013-05-01 23:52:00,47.7,5.1,30.53,NNW,330,0.0,0.0,17,0.00,,,0.00,0,WeatherHawk,2013-05-02 06:52:00,
2013-05-01 23:57:00,47.7,6.3,30.53,NNW,330,0.0,0.0,18,0.00,,,0.00,0,WeatherHawk,2013-05-02 06:57:00,